createdAt,value
2018-09-25T00:01:54.126Z,82.40
2018-09-25T00:04:27.970Z,82.00
2018-09-25T00:07:01.798Z,81.80
2018-09-25T00:09:35.817Z,82.00
2018-09-25T00:12:09.888Z,81.60
2018-09-25T00:14:45.403Z,81.20
2018-09-25T00:17:19.504Z,81.20
2018-09-25T00:19:53.467Z,81.00
2018-09-25T00:22:27.480Z,81.10
2018-09-25T00:25:01.493Z,81.30
2018-09-25T00:27:35.526Z,81.10
2018-09-25T00:30:09.674Z,81.70
2018-09-25T00:32:43.518Z,81.90
2018-09-25T00:35:17.492Z,81.70
2018-09-25T00:37:51.595Z,82.70
2018-09-25T00:40:25.494Z,83.10
2018-09-25T00:42:59.278Z,83.30
2018-09-25T00:45:33.334Z,83.60
2018-09-25T00:48:07.286Z,83.80
2018-09-25T00:50:41.328Z,84.30
2018-09-25T00:53:15.146Z,84.20
2018-09-25T00:55:49.123Z,85.00
2018-09-25T00:58:23.169Z,84.80
2018-09-25T01:00:57.123Z,85.10
2018-09-25T01:03:31.146Z,85.40
2018-09-25T01:06:05.101Z,85.60
2018-09-25T01:08:39.105Z,85.80
2018-09-25T01:11:13.501Z,86.00
2018-09-25T01:13:47.507Z,86.70
2018-09-25T01:16:21.571Z,86.50
2018-09-25T01:18:55.354Z,87.70
2018-09-25T01:21:29.143Z,87.70
2018-09-25T01:24:03.034Z,88.80
2018-09-25T01:26:37.121Z,89.30
2018-09-25T01:29:10.941Z,89.40
2018-09-25T01:31:45.012Z,87.80
2018-09-25T01:34:18.962Z,90.00
2018-09-25T01:36:53.600Z,89.80
2018-09-25T01:39:27.631Z,90.10
2018-09-25T01:42:01.829Z,89.90
2018-09-25T01:44:35.558Z,90.60
2018-09-25T01:47:09.686Z,90.40
2018-09-25T01:49:43.679Z,90.00
2018-09-25T01:52:17.586Z,89.80
2018-09-25T01:54:51.462Z,89.60
2018-09-25T01:57:25.313Z,89.70
2018-09-25T01:59:59.110Z,88.30
2018-09-25T02:02:33.035Z,90.00
2018-09-25T02:05:07.045Z,90.00
2018-09-25T02:07:40.986Z,90.00
2018-09-25T02:10:15.088Z,90.30
2018-09-25T02:12:50.963Z,90.10
2018-09-25T02:15:24.801Z,90.60
2018-09-25T02:17:58.952Z,90.80
2018-09-25T02:20:32.837Z,90.90
2018-09-25T02:23:06.866Z,91.10
2018-09-25T02:25:40.607Z,91.00
2018-09-25T02:28:14.572Z,91.30
2018-09-25T02:30:49.875Z,91.40
2018-09-25T02:33:23.764Z,91.60
2018-09-25T02:35:57.702Z,91.80
2018-09-25T02:38:31.654Z,91.80
2018-09-25T02:41:06.815Z,91.80
2018-09-25T02:43:40.899Z,91.80
2018-09-25T02:46:14.700Z,91.70
2018-09-25T02:48:49.374Z,91.70
2018-09-25T02:51:23.496Z,91.50
2018-09-25T02:53:57.461Z,90.50
2018-09-25T02:56:31.308Z,91.20
2018-09-25T02:59:05.294Z,91.20
2018-09-25T03:01:39.148Z,91.40
2018-09-25T03:04:13.063Z,91.20
2018-09-25T03:06:47.024Z,91.20
2018-09-25T03:09:21.148Z,91.10
2018-09-25T03:11:55.034Z,91.10
2018-09-25T03:14:29.343Z,91.10
2018-09-25T03:17:04.457Z,91.20
2018-09-25T03:19:38.512Z,91.10
2018-09-25T03:22:12.382Z,90.90
2018-09-25T03:24:46.330Z,90.60
2018-09-25T03:27:20.306Z,90.80
2018-09-25T03:29:54.183Z,91.00
2018-09-25T03:32:27.991Z,91.10
2018-09-25T03:35:01.837Z,90.90
2018-09-25T03:37:35.499Z,91.00
2018-09-25T03:40:09.607Z,91.00
2018-09-25T03:42:43.354Z,91.00
2018-09-25T03:45:19.561Z,91.30
2018-09-25T03:47:53.498Z,91.20
2018-09-25T03:50:27.574Z,91.00
2018-09-25T03:53:01.660Z,90.60
2018-09-25T03:55:35.606Z,90.60
2018-09-25T03:58:09.522Z,90.50
2018-09-25T04:00:43.335Z,89.80
2018-09-25T04:03:18.879Z,90.70
2018-09-25T04:05:52.948Z,91.30
2018-09-25T04:08:26.818Z,91.80
2018-09-25T04:11:00.785Z,91.70
2018-09-25T04:13:34.728Z,92.30
2018-09-25T04:16:08.691Z,92.80
2018-09-25T04:18:42.555Z,92.50
2018-09-25T04:21:16.349Z,93.20
2018-09-25T04:23:50.245Z,93.30
2018-09-25T04:26:24.172Z,93.30
2018-09-25T04:29:01.130Z,93.20
2018-09-25T04:31:35.249Z,92.90
2018-09-25T04:34:09.281Z,92.90
2018-09-25T04:36:43.289Z,92.60
2018-09-25T04:39:17.303Z,91.90
2018-09-25T04:41:51.199Z,92.30
2018-09-25T04:44:26.191Z,92.20
2018-09-25T04:47:00.392Z,91.80
2018-09-25T04:49:34.589Z,90.70
2018-09-25T04:52:09.410Z,91.90
2018-09-25T04:54:44.158Z,92.00
2018-09-25T04:57:23.884Z,91.90
2018-09-25T04:59:58.012Z,92.10
2018-09-25T05:02:32.150Z,91.70
2018-09-25T05:05:12.791Z,92.00
2018-09-25T05:07:47.107Z,92.10
2018-09-25T05:10:26.001Z,92.00
2018-09-25T05:12:59.933Z,92.20
2018-09-25T05:15:34.038Z,92.40
2018-09-25T05:18:08.031Z,92.60
2018-09-25T05:20:42.092Z,93.00
2018-09-25T05:23:16.143Z,93.30
2018-09-25T05:25:49.944Z,93.20
2018-09-25T05:28:23.911Z,93.10
2018-09-25T05:30:57.923Z,93.00
2018-09-25T05:33:31.682Z,93.20
2018-09-25T05:36:06.653Z,93.40
2018-09-25T05:38:40.509Z,93.60
2018-09-25T05:41:17.964Z,93.40
2018-09-25T05:43:52.066Z,93.00
2018-09-25T05:46:28.371Z,93.60
2018-09-25T05:49:02.435Z,93.20
2018-09-25T05:51:36.560Z,92.90
2018-09-25T05:54:10.604Z,92.90
2018-09-25T05:56:46.646Z,93.00
2018-09-25T05:59:20.570Z,93.00
2018-09-25T06:01:54.601Z,93.00
2018-09-25T06:04:28.660Z,93.10
2018-09-25T06:07:02.630Z,93.20
2018-09-25T06:09:38.852Z,93.20
2018-09-25T06:12:13.652Z,93.20
2018-09-25T06:14:47.433Z,93.00
2018-09-25T06:17:21.236Z,93.00
2018-09-25T06:19:56.532Z,93.00
2018-09-25T06:22:30.420Z,92.80
2018-09-25T06:25:06.488Z,92.80
2018-09-25T06:27:40.665Z,92.80
2018-09-25T06:30:14.578Z,92.60
2018-09-25T06:32:48.415Z,92.30
2018-09-25T06:35:22.404Z,92.20
2018-09-25T06:37:57.076Z,92.00
2018-09-25T06:40:31.335Z,91.80
2018-09-25T06:43:05.184Z,91.70
2018-09-25T06:45:39.110Z,91.60
2018-09-25T06:48:12.984Z,91.50
2018-09-25T06:50:47.073Z,91.50
2018-09-25T06:53:21.370Z,91.30
2018-09-25T06:55:57.505Z,91.40
2018-09-25T06:58:31.516Z,90.90
2018-09-25T07:01:05.605Z,90.10
2018-09-25T07:03:39.389Z,90.50
2018-09-25T07:06:14.084Z,90.50
2018-09-25T07:08:48.208Z,90.30
2018-09-25T07:11:22.527Z,90.00
2018-09-25T07:13:56.457Z,89.20
2018-09-25T07:16:30.539Z,88.40
2018-09-25T07:19:04.837Z,87.20
2018-09-25T07:21:38.853Z,86.10
2018-09-25T07:24:13.940Z,86.10
2018-09-25T07:26:50.173Z,85.50
2018-09-25T07:29:24.615Z,83.00
2018-09-25T07:31:58.973Z,81.10
2018-09-25T07:34:32.908Z,81.70
2018-09-25T07:37:06.923Z,80.00
2018-09-25T07:39:40.752Z,79.30
2018-09-25T07:42:19.136Z,79.10
2018-09-25T07:44:53.443Z,79.00
2018-09-25T07:47:27.669Z,79.40
2018-09-25T07:50:01.952Z,80.10
2018-09-25T07:52:36.013Z,78.90
2018-09-25T07:55:12.577Z,79.30
2018-09-25T07:57:47.280Z,78.60
2018-09-25T08:00:21.467Z,79.60
2018-09-25T08:03:00.850Z,80.50
2018-09-25T08:05:35.149Z,78.70
2018-09-25T08:08:09.564Z,78.60
2018-09-25T08:10:47.362Z,76.30
2018-09-25T08:13:22.586Z,75.30
2018-09-25T08:15:57.789Z,74.70
2018-09-25T08:18:31.654Z,76.70
2018-09-25T08:21:06.027Z,76.20
2018-09-25T08:23:41.503Z,75.40
2018-09-25T08:29:09.776Z,75.40
2018-09-25T08:31:46.165Z,75.60
2018-09-25T08:34:25.133Z,74.00
2018-09-25T08:37:02.759Z,74.10
2018-09-25T08:39:40.576Z,73.90
2018-09-25T08:42:18.272Z,72.80
2018-09-25T08:44:53.366Z,71.20
2018-09-25T08:47:27.460Z,71.70
2018-09-25T08:50:01.781Z,73.00
2018-09-25T08:52:35.804Z,72.10
2018-09-25T08:55:10.059Z,71.70
2018-09-25T08:57:44.127Z,72.10
2018-09-25T09:00:18.503Z,71.50
2018-09-25T09:02:53.068Z,70.90
2018-09-25T09:05:27.170Z,68.70
2018-09-25T09:08:01.457Z,68.50
2018-09-25T09:10:35.554Z,67.60
2018-09-25T09:13:09.738Z,67.00
2018-09-25T09:15:45.411Z,65.10
2018-09-25T09:18:19.474Z,65.40
2018-09-25T09:20:53.394Z,64.00
2018-09-25T09:23:27.667Z,64.50
2018-09-25T09:26:01.574Z,63.40
2018-09-25T09:28:35.793Z,64.80
2018-09-25T09:31:10.411Z,63.90
2018-09-25T09:33:45.552Z,64.00
2018-09-25T09:36:19.374Z,63.00
2018-09-25T09:38:54.190Z,63.60
2018-09-25T09:41:28.283Z,62.70
2018-09-25T09:44:02.445Z,63.00
2018-09-25T09:46:36.480Z,63.30
2018-09-25T09:49:10.462Z,61.30
2018-09-25T09:51:44.691Z,60.40
2018-09-25T09:54:18.731Z,59.00
2018-09-25T09:56:52.693Z,58.00
2018-09-25T09:59:26.646Z,58.80
2018-09-25T10:02:05.035Z,58.70
2018-09-25T10:04:43.428Z,58.80
2018-09-25T10:07:19.535Z,57.70
2018-09-25T10:09:54.589Z,57.20
2018-09-25T10:12:28.442Z,57.40
2018-09-25T10:15:02.737Z,56.70
2018-09-25T10:17:36.708Z,56.20
2018-09-25T10:20:10.748Z,53.10
2018-09-25T10:22:44.561Z,51.50
2018-09-25T10:25:25.628Z,49.60
2018-09-25T10:28:05.167Z,47.70
2018-09-25T10:30:39.355Z,46.70
2018-09-25T10:33:16.852Z,46.20
2018-09-25T10:35:51.014Z,47.70
2018-09-25T10:38:25.104Z,49.80
2018-09-25T10:41:03.624Z,48.90
2018-09-25T10:43:37.832Z,45.70
2018-09-25T10:46:18.823Z,42.80
2018-09-25T10:48:53.463Z,41.70
2018-09-25T10:51:28.239Z,43.50
2018-09-25T10:54:02.290Z,45.30
2018-09-25T10:56:36.277Z,44.00
2018-09-25T10:59:12.944Z,43.10
2018-09-25T11:01:47.102Z,41.40
2018-09-25T11:04:21.182Z,46.30
2018-09-25T11:06:55.354Z,43.20
2018-09-25T11:09:30.022Z,41.60
2018-09-25T11:12:07.523Z,43.20
2018-09-25T11:14:46.080Z,45.20
2018-09-25T11:17:21.702Z,48.00
2018-09-25T11:19:57.125Z,44.10
2018-09-25T11:22:31.147Z,42.20
2018-09-25T11:25:06.724Z,43.30
2018-09-25T11:27:40.833Z,45.70
2018-09-25T11:30:14.738Z,46.20
2018-09-25T11:32:49.050Z,47.10
2018-09-25T11:35:23.521Z,46.10
2018-09-25T11:37:58.176Z,44.70
2018-09-25T11:40:32.718Z,42.60
2018-09-25T11:43:06.779Z,38.90
2018-09-25T11:45:41.488Z,36.80
2018-09-25T11:48:15.731Z,38.80
2018-09-25T11:50:53.979Z,41.90
2018-09-25T11:53:28.388Z,39.80
2018-09-25T11:56:02.338Z,36.20
2018-09-25T11:58:36.896Z,38.10
2018-09-25T12:01:11.499Z,39.60
2018-09-25T12:03:45.776Z,37.50
2018-09-25T12:06:19.964Z,36.60
2018-09-25T12:08:54.282Z,33.90
2018-09-25T12:24:45.810Z,29.40
2018-09-25T12:27:40.271Z,30.00
2018-09-25T12:36:23.539Z,34.20
2018-09-25T12:42:09.579Z,30.20
2018-09-25T15:35:37.725Z,44.60
2018-09-25T15:38:21.294Z,44.70
2018-09-25T15:46:42.928Z,47.00
2018-09-25T16:42:05.298Z,49.30
2018-09-25T17:12:41.817Z,51.70
2018-09-25T17:18:24.739Z,52.80
2018-09-25T17:21:15.470Z,53.60
2018-09-25T17:26:52.382Z,55.00
2018-09-25T17:29:41.973Z,55.70
2018-09-25T17:32:36.021Z,55.70
2018-09-25T17:58:42.579Z,55.80
2018-09-25T18:10:13.023Z,57.50
2018-09-25T18:13:06.656Z,57.20
2018-09-25T18:15:48.709Z,56.60
2018-09-25T18:18:30.296Z,56.50
2018-09-25T18:21:10.513Z,56.30
2018-09-25T18:24:11.228Z,56.10
2018-09-25T18:30:18.159Z,55.80
2018-09-25T20:01:20.243Z,57.00
2018-09-25T20:07:12.567Z,57.50
2018-09-25T20:09:56.441Z,57.60
2018-09-25T20:27:38.673Z,59.30
2018-09-25T21:19:05.668Z,60.10
2018-09-25T21:22:04.737Z,60.60
2018-09-25T21:28:09.100Z,64.90
2018-09-25T21:31:03.658Z,66.10
2018-09-25T21:37:15.546Z,67.20
2018-09-25T21:40:10.087Z,67.00
2018-09-25T21:45:40.912Z,64.40
2018-09-25T21:51:11.136Z,65.70
2018-09-25T23:00:47.276Z,72.40
2018-09-25T23:13:03.788Z,73.30
2018-09-25T23:40:00.068Z,73.60
2018-09-25T23:42:34.875Z,74.20
2018-09-25T23:45:08.863Z,72.70
2018-09-25T23:47:42.585Z,74.80
2018-09-25T23:50:19.040Z,74.90
2018-09-25T23:52:54.070Z,74.70
2018-09-25T23:55:57.811Z,74.20
2018-09-25T23:58:32.365Z,74.10
